sensor_id;sensor_type;location;lat;lon;timestamp;P1;durP1;ratioP1;P2;durP2;ratioP2
42590;SDS011;28218;53.342;-6.216;2023-01-28T00:02:10;11.88;;;4.68;;
42590;SDS011;28218;53.342;-6.216;2023-01-28T00:04:39;14.75;;;4.32;;
42590;SDS011;28218;53.342;-6.216;2023-01-28T00:07:07;13.82;;;4.35;;
42590;SDS011;28218;53.342;-6.216;2023-01-28T00:09:36;13.18;;;4.43;;
42590;SDS011;28218;53.342;-6.216;2023-01-28T00:12:05;14.75;;;4.75;;
42590;SDS011;28218;53.342;-6.216;2023-01-28T00:14:33;11.73;;;4.53;;
42590;SDS011;28218;53.342;-6.216;2023-01-28T00:17:03;13.27;;;5.15;;
42590;SDS011;28218;53.342;-6.216;2023-01-28T00:19:33;17.20;;;4.15;;
42590;SDS011;28218;53.342;-6.216;2023-01-28T00:22:01;11.02;;;4.55;;
42590;SDS011;28218;53.342;-6.216;2023-01-28T00:24:29;11.63;;;3.70;;
42590;SDS011;28218;53.342;-6.216;2023-01-28T00:26:58;13.75;;;4.18;;
42590;SDS011;28218;53.342;-6.216;2023-01-28T00:29:26;11.00;;;3.97;;
42590;SDS011;28218;53.342;-6.216;2023-01-28T00:31:54;11.43;;;4.18;;
42590;SDS011;28218;53.342;-6.216;2023-01-28T00:34:22;10.43;;;2.85;;
42590;SDS011;28218;53.342;-6.216;2023-01-28T00:36:52;11.25;;;3.50;;
42590;SDS011;28218;53.342;-6.216;2023-01-28T00:39:24;10.85;;;3.80;;
42590;SDS011;28218;53.342;-6.216;2023-01-28T00:41:54;17.42;;;3.80;;
42590;SDS011;28218;53.342;-6.216;2023-01-28T00:44:23;11.93;;;3.63;;
42590;SDS011;28218;53.342;-6.216;2023-01-28T00:46:51;11.52;;;3.20;;
42590;SDS011;28218;53.342;-6.216;2023-01-28T00:49:19;14.48;;;3.92;;
42590;SDS011;28218;53.342;-6.216;2023-01-28T00:51:47;10.85;;;3.70;;
42590;SDS011;28218;53.342;-6.216;2023-01-28T00:54:17;12.35;;;4.13;;
42590;SDS011;28218;53.342;-6.216;2023-01-28T00:56:45;10.05;;;4.10;;
42590;SDS011;28218;53.342;-6.216;2023-01-28T00:59:14;10.27;;;3.53;;
42590;SDS011;28218;53.342;-6.216;2023-01-28T01:01:42;14.68;;;3.85;;
42590;SDS011;28218;53.342;-6.216;2023-01-28T01:04:10;9.70;;;2.70;;
42590;SDS011;28218;53.342;-6.216;2023-01-28T01:06:39;11.70;;;3.17;;
42590;SDS011;28218;53.342;-6.216;2023-01-28T01:09:09;8.23;;;3.28;;
42590;SDS011;28218;53.342;-6.216;2023-01-28T01:11:39;12.50;;;2.97;;
42590;SDS011;28218;53.342;-6.216;2023-01-28T01:14:08;12.07;;;2.90;;
42590;SDS011;28218;53.342;-6.216;2023-01-28T01:16:37;11.27;;;3.17;;
42590;SDS011;28218;53.342;-6.216;2023-01-28T01:19:06;6.60;;;3.00;;
42590;SDS011;28218;53.342;-6.216;2023-01-28T01:21:35;11.48;;;3.10;;
42590;SDS011;28218;53.342;-6.216;2023-01-28T01:24:03;11.45;;;2.90;;
42590;SDS011;28218;53.342;-6.216;2023-01-28T01:26:32;10.60;;;2.72;;
42590;SDS011;28218;53.342;-6.216;2023-01-28T01:29:01;14.70;;;3.15;;
42590;SDS011;28218;53.342;-6.216;2023-01-28T01:31:29;9.10;;;2.38;;
42590;SDS011;28218;53.342;-6.216;2023-01-28T01:33:58;6.75;;;2.50;;
42590;SDS011;28218;53.342;-6.216;2023-01-28T01:36:26;9.65;;;2.83;;
42590;SDS011;28218;53.342;-6.216;2023-01-28T01:38:54;11.05;;;2.47;;
42590;SDS011;28218;53.342;-6.216;2023-01-28T01:41:24;6.25;;;2.00;;
42590;SDS011;28218;53.342;-6.216;2023-01-28T01:43:55;9.98;;;2.05;;
42590;SDS011;28218;53.342;-6.216;2023-01-28T01:46:26;10.10;;;2.10;;
42590;SDS011;28218;53.342;-6.216;2023-01-28T01:49:02;4.95;;;1.92;;
42590;SDS011;28218;53.342;-6.216;2023-01-28T01:51:38;10.45;;;1.77;;
42590;SDS011;28218;53.342;-6.216;2023-01-28T01:54:07;11.18;;;2.65;;
42590;SDS011;28218;53.342;-6.216;2023-01-28T01:56:37;10.93;;;2.55;;
42590;SDS011;28218;53.342;-6.216;2023-01-28T01:59:09;12.43;;;2.28;;
42590;SDS011;28218;53.342;-6.216;2023-01-28T02:01:41;6.75;;;1.83;;
42590;SDS011;28218;53.342;-6.216;2023-01-28T02:04:12;10.93;;;2.63;;
42590;SDS011;28218;53.342;-6.216;2023-01-28T02:06:46;11.00;;;2.22;;
42590;SDS011;28218;53.342;-6.216;2023-01-28T02:09:22;7.82;;;1.92;;
42590;SDS011;28218;53.342;-6.216;2023-01-28T02:11:51;11.88;;;2.58;;
42590;SDS011;28218;53.342;-6.216;2023-01-28T02:14:22;9.55;;;2.13;;
42590;SDS011;28218;53.342;-6.216;2023-01-28T02:16:59;6.68;;;1.92;;
42590;SDS011;28218;53.342;-6.216;2023-01-28T02:19:43;7.40;;;2.08;;
42590;SDS011;28218;53.342;-6.216;2023-01-28T02:22:28;6.68;;;2.63;;
42590;SDS011;28218;53.342;-6.216;2023-01-28T02:25:22;5.95;;;1.95;;
42590;SDS011;28218;53.342;-6.216;2023-01-28T02:28:11;8.80;;;1.90;;
42590;SDS011;28218;53.342;-6.216;2023-01-28T02:30:47;10.15;;;2.15;;
42590;SDS011;28218;53.342;-6.216;2023-01-28T02:33:21;14.00;;;3.45;;
42590;SDS011;28218;53.342;-6.216;2023-01-28T02:35:57;9.75;;;1.90;;
42590;SDS011;28218;53.342;-6.216;2023-01-28T02:38:36;10.07;;;2.10;;
42590;SDS011;28218;53.342;-6.216;2023-01-28T02:41:10;8.82;;;1.98;;
42590;SDS011;28218;53.342;-6.216;2023-01-28T02:43:46;10.23;;;2.45;;
42590;SDS011;28218;53.342;-6.216;2023-01-28T02:46:17;7.25;;;1.95;;
42590;SDS011;28218;53.342;-6.216;2023-01-28T02:49:07;14.73;;;2.00;;
42590;SDS011;28218;53.342;-6.216;2023-01-28T02:51:44;11.68;;;2.05;;
42590;SDS011;28218;53.342;-6.216;2023-01-28T02:54:27;11.88;;;1.88;;
42590;SDS011;28218;53.342;-6.216;2023-01-28T02:57:05;12.02;;;2.20;;
42590;SDS011;28218;53.342;-6.216;2023-01-28T02:59:46;8.52;;;3.30;;
42590;SDS011;28218;53.342;-6.216;2023-01-28T03:02:20;13.80;;;2.17;;
42590;SDS011;28218;53.342;-6.216;2023-01-28T03:04:57;12.23;;;1.95;;
42590;SDS011;28218;53.342;-6.216;2023-01-28T03:07:30;9.23;;;2.63;;
42590;SDS011;28218;53.342;-6.216;2023-01-28T03:10:02;7.22;;;1.45;;
42590;SDS011;28218;53.342;-6.216;2023-01-28T03:12:31;11.20;;;2.13;;
42590;SDS011;28218;53.342;-6.216;2023-01-28T03:15:22;9.52;;;2.00;;
42590;SDS011;28218;53.342;-6.216;2023-01-28T03:18:12;8.27;;;3.45;;
42590;SDS011;28218;53.342;-6.216;2023-01-28T03:21:01;9.95;;;1.90;;
42590;SDS011;28218;53.342;-6.216;2023-01-28T03:23:52;3.95;;;1.77;;
42590;SDS011;28218;53.342;-6.216;2023-01-28T03:26:43;6.90;;;1.75;;
42590;SDS011;28218;53.342;-6.216;2023-01-28T03:29:32;5.47;;;1.67;;
42590;SDS011;28218;53.342;-6.216;2023-01-28T03:32:20;10.35;;;1.83;;
42590;SDS011;28218;53.342;-6.216;2023-01-28T03:35:07;5.10;;;2.00;;
42590;SDS011;28218;53.342;-6.216;2023-01-28T03:37:56;5.85;;;1.90;;
42590;SDS011;28218;53.342;-6.216;2023-01-28T03:40:25;6.50;;;2.15;;
42590;SDS011;28218;53.342;-6.216;2023-01-28T03:42:54;11.65;;;1.98;;
42590;SDS011;28218;53.342;-6.216;2023-01-28T03:45:22;5.28;;;2.10;;
42590;SDS011;28218;53.342;-6.216;2023-01-28T03:47:52;7.93;;;2.20;;
42590;SDS011;28218;53.342;-6.216;2023-01-28T03:50:20;6.18;;;1.85;;
42590;SDS011;28218;53.342;-6.216;2023-01-28T03:52:48;5.90;;;1.77;;
42590;SDS011;28218;53.342;-6.216;2023-01-28T03:55:16;4.82;;;1.50;;
42590;SDS011;28218;53.342;-6.216;2023-01-28T03:57:44;5.72;;;1.85;;
42590;SDS011;28218;53.342;-6.216;2023-01-28T04:00:13;3.97;;;2.25;;
42590;SDS011;28218;53.342;-6.216;2023-01-28T04:02:43;9.00;;;2.42;;
42590;SDS011;28218;53.342;-6.216;2023-01-28T04:05:13;5.72;;;1.60;;
42590;SDS011;28218;53.342;-6.216;2023-01-28T04:07:45;4.13;;;1.80;;
42590;SDS011;28218;53.342;-6.216;2023-01-28T04:10:13;6.30;;;1.90;;
42590;SDS011;28218;53.342;-6.216;2023-01-28T04:12:42;4.57;;;1.50;;
42590;SDS011;28218;53.342;-6.216;2023-01-28T04:15:10;6.28;;;1.63;;
42590;SDS011;28218;53.342;-6.216;2023-01-28T04:17:45;8.07;;;3.22;;
42590;SDS011;28218;53.342;-6.216;2023-01-28T04:20:16;3.55;;;1.40;;
42590;SDS011;28218;53.342;-6.216;2023-01-28T04:22:44;4.85;;;1.60;;
42590;SDS011;28218;53.342;-6.216;2023-01-28T04:25:13;5.45;;;2.03;;
42590;SDS011;28218;53.342;-6.216;2023-01-28T04:27:42;2.85;;;1.40;;
42590;SDS011;28218;53.342;-6.216;2023-01-28T04:30:10;3.42;;;1.48;;
42590;SDS011;28218;53.342;-6.216;2023-01-28T04:32:39;2.72;;;1.63;;
42590;SDS011;28218;53.342;-6.216;2023-01-28T04:35:07;4.68;;;1.63;;
42590;SDS011;28218;53.342;-6.216;2023-01-28T04:37:39;5.03;;;1.50;;
42590;SDS011;28218;53.342;-6.216;2023-01-28T04:40:07;2.55;;;1.98;;
42590;SDS011;28218;53.342;-6.216;2023-01-28T04:42:37;6.55;;;2.78;;
42590;SDS011;28218;53.342;-6.216;2023-01-28T04:45:06;1.65;;;1.10;;
42590;SDS011;28218;53.342;-6.216;2023-01-28T04:47:35;4.00;;;1.63;;
42590;SDS011;28218;53.342;-6.216;2023-01-28T04:50:03;3.10;;;1.20;;
42590;SDS011;28218;53.342;-6.216;2023-01-28T04:52:32;2.08;;;1.55;;
42590;SDS011;28218;53.342;-6.216;2023-01-28T04:55:01;2.53;;;1.25;;
42590;SDS011;28218;53.342;-6.216;2023-01-28T04:57:30;3.67;;;1.35;;
42590;SDS011;28218;53.342;-6.216;2023-01-28T04:59:58;3.85;;;1.23;;
42590;SDS011;28218;53.342;-6.216;2023-01-28T05:02:27;1.20;;;1.00;;
42590;SDS011;28218;53.342;-6.216;2023-01-28T05:04:55;1.63;;;1.00;;
42590;SDS011;28218;53.342;-6.216;2023-01-28T05:07:23;3.55;;;1.20;;
42590;SDS011;28218;53.342;-6.216;2023-01-28T05:09:51;3.60;;;1.38;;
42590;SDS011;28218;53.342;-6.216;2023-01-28T05:12:21;2.00;;;1.40;;
42590;SDS011;28218;53.342;-6.216;2023-01-28T05:14:49;7.60;;;1.75;;
42590;SDS011;28218;53.342;-6.216;2023-01-28T05:17:17;1.92;;;1.17;;
42590;SDS011;28218;53.342;-6.216;2023-01-28T05:19:46;2.38;;;1.55;;
42590;SDS011;28218;53.342;-6.216;2023-01-28T05:22:14;4.68;;;1.77;;
42590;SDS011;28218;53.342;-6.216;2023-01-28T05:24:42;4.03;;;1.70;;
42590;SDS011;28218;53.342;-6.216;2023-01-28T05:27:10;1.77;;;1.45;;
42590;SDS011;28218;53.342;-6.216;2023-01-28T05:29:40;4.18;;;1.70;;
42590;SDS011;28218;53.342;-6.216;2023-01-28T05:32:08;4.60;;;1.40;;
42590;SDS011;28218;53.342;-6.216;2023-01-28T05:34:36;6.03;;;1.40;;
42590;SDS011;28218;53.342;-6.216;2023-01-28T05:37:05;5.07;;;1.63;;
42590;SDS011;28218;53.342;-6.216;2023-01-28T05:39:33;3.42;;;1.48;;
42590;SDS011;28218;53.342;-6.216;2023-01-28T05:42:01;2.38;;;1.52;;
42590;SDS011;28218;53.342;-6.216;2023-01-28T05:44:29;7.38;;;1.65;;
42590;SDS011;28218;53.342;-6.216;2023-01-28T05:46:59;3.10;;;1.33;;
42590;SDS011;28218;53.342;-6.216;2023-01-28T05:49:27;3.70;;;1.58;;
42590;SDS011;28218;53.342;-6.216;2023-01-28T05:51:55;5.65;;;1.50;;
42590;SDS011;28218;53.342;-6.216;2023-01-28T05:54:23;1.75;;;1.15;;
42590;SDS011;28218;53.342;-6.216;2023-01-28T05:56:51;2.85;;;1.40;;
42590;SDS011;28218;53.342;-6.216;2023-01-28T05:59:20;2.33;;;1.35;;
42590;SDS011;28218;53.342;-6.216;2023-01-28T06:01:48;6.40;;;2.25;;
42590;SDS011;28218;53.342;-6.216;2023-01-28T06:04:17;3.15;;;1.40;;
42590;SDS011;28218;53.342;-6.216;2023-01-28T06:06:46;5.55;;;1.65;;
42590;SDS011;28218;53.342;-6.216;2023-01-28T06:09:14;4.72;;;1.52;;
42590;SDS011;28218;53.342;-6.216;2023-01-28T06:11:42;5.07;;;1.95;;
42590;SDS011;28218;53.342;-6.216;2023-01-28T06:14:11;3.03;;;1.27;;
42590;SDS011;28218;53.342;-6.216;2023-01-28T06:16:39;7.63;;;1.80;;
42590;SDS011;28218;53.342;-6.216;2023-01-28T06:19:07;3.10;;;1.30;;
42590;SDS011;28218;53.342;-6.216;2023-01-28T06:21:37;5.95;;;1.48;;
42590;SDS011;28218;53.342;-6.216;2023-01-28T06:24:05;1.95;;;1.60;;
42590;SDS011;28218;53.342;-6.216;2023-01-28T06:26:33;4.10;;;2.60;;
42590;SDS011;28218;53.342;-6.216;2023-01-28T06:29:01;2.50;;;1.73;;
42590;SDS011;28218;53.342;-6.216;2023-01-28T06:31:30;3.25;;;1.45;;
42590;SDS011;28218;53.342;-6.216;2023-01-28T06:33:58;6.72;;;2.60;;
42590;SDS011;28218;53.342;-6.216;2023-01-28T06:36:26;3.90;;;1.77;;
42590;SDS011;28218;53.342;-6.216;2023-01-28T06:38:56;2.67;;;1.67;;
42590;SDS011;28218;53.342;-6.216;2023-01-28T06:41:24;4.15;;;1.52;;
42590;SDS011;28218;53.342;-6.216;2023-01-28T06:43:52;4.78;;;2.00;;
42590;SDS011;28218;53.342;-6.216;2023-01-28T06:46:20;2.70;;;1.52;;
42590;SDS011;28218;53.342;-6.216;2023-01-28T06:48:50;6.13;;;1.60;;
42590;SDS011;28218;53.342;-6.216;2023-01-28T06:51:18;2.40;;;1.70;;
42590;SDS011;28218;53.342;-6.216;2023-01-28T06:53:46;6.05;;;2.17;;
42590;SDS011;28218;53.342;-6.216;2023-01-28T06:56:16;2.00;;;1.40;;
42590;SDS011;28218;53.342;-6.216;2023-01-28T06:58:44;5.40;;;1.63;;
42590;SDS011;28218;53.342;-6.216;2023-01-28T07:04:53;2.50;;;1.50;;
42590;SDS011;28218;53.342;-6.216;2023-01-28T07:07:21;1.90;;;1.40;;
42590;SDS011;28218;53.342;-6.216;2023-01-28T07:09:49;3.97;;;1.77;;
42590;SDS011;28218;53.342;-6.216;2023-01-28T07:12:19;2.13;;;1.42;;
42590;SDS011;28218;53.342;-6.216;2023-01-28T07:14:47;4.40;;;1.70;;
42590;SDS011;28218;53.342;-6.216;2023-01-28T07:17:15;3.20;;;1.67;;
42590;SDS011;28218;53.342;-6.216;2023-01-28T07:19:43;3.35;;;1.45;;
42590;SDS011;28218;53.342;-6.216;2023-01-28T07:22:12;2.83;;;1.40;;
42590;SDS011;28218;53.342;-6.216;2023-01-28T07:24:40;2.20;;;1.60;;
42590;SDS011;28218;53.342;-6.216;2023-01-28T07:27:08;2.75;;;1.33;;
42590;SDS011;28218;53.342;-6.216;2023-01-28T07:29:38;2.63;;;1.67;;
42590;SDS011;28218;53.342;-6.216;2023-01-28T07:32:06;1.95;;;1.58;;
42590;SDS011;28218;53.342;-6.216;2023-01-28T07:34:34;3.05;;;1.67;;
42590;SDS011;28218;53.342;-6.216;2023-01-28T07:37:05;2.40;;;1.55;;
42590;SDS011;28218;53.342;-6.216;2023-01-28T07:39:33;2.63;;;1.80;;
42590;SDS011;28218;53.342;-6.216;2023-01-28T07:42:01;3.15;;;1.70;;
42590;SDS011;28218;53.342;-6.216;2023-01-28T07:44:30;1.20;;;1.10;;
42590;SDS011;28218;53.342;-6.216;2023-01-28T07:46:59;3.40;;;0.82;;
42590;SDS011;28218;53.342;-6.216;2023-01-28T07:49:27;1.10;;;1.10;;
42590;SDS011;28218;53.342;-6.216;2023-01-28T07:51:58;1.85;;;1.05;;
42590;SDS011;28218;53.342;-6.216;2023-01-28T07:54:26;1.35;;;1.20;;
42590;SDS011;28218;53.342;-6.216;2023-01-28T07:56:56;0.95;;;0.85;;
42590;SDS011;28218;53.342;-6.216;2023-01-28T07:59:24;2.00;;;0.98;;
42590;SDS011;28218;53.342;-6.216;2023-01-28T08:01:52;2.20;;;2.00;;
42590;SDS011;28218;53.342;-6.216;2023-01-28T08:04:22;3.47;;;1.70;;
42590;SDS011;28218;53.342;-6.216;2023-01-28T08:06:50;4.55;;;2.30;;
42590;SDS011;28218;53.342;-6.216;2023-01-28T08:09:18;4.03;;;2.72;;
42590;SDS011;28218;53.342;-6.216;2023-01-28T08:11:46;2.17;;;1.33;;
42590;SDS011;28218;53.342;-6.216;2023-01-28T08:14:15;1.33;;;1.13;;
42590;SDS011;28218;53.342;-6.216;2023-01-28T08:16:43;2.33;;;1.80;;
42590;SDS011;28218;53.342;-6.216;2023-01-28T08:19:11;3.70;;;1.17;;
42590;SDS011;28218;53.342;-6.216;2023-01-28T08:21:41;1.33;;;0.90;;
42590;SDS011;28218;53.342;-6.216;2023-01-28T08:24:09;1.08;;;0.95;;
42590;SDS011;28218;53.342;-6.216;2023-01-28T08:26:37;1.90;;;1.45;;
42590;SDS011;28218;53.342;-6.216;2023-01-28T08:29:05;1.95;;;1.38;;
42590;SDS011;28218;53.342;-6.216;2023-01-28T08:31:33;1.40;;;1.30;;
42590;SDS011;28218;53.342;-6.216;2023-01-28T08:34:02;1.63;;;1.00;;
42590;SDS011;28218;53.342;-6.216;2023-01-28T08:36:33;1.05;;;0.95;;
42590;SDS011;28218;53.342;-6.216;2023-01-28T08:39:03;1.10;;;1.00;;
42590;SDS011;28218;53.342;-6.216;2023-01-28T08:41:31;1.90;;;1.10;;
42590;SDS011;28218;53.342;-6.216;2023-01-28T08:43:59;2.95;;;1.60;;
42590;SDS011;28218;53.342;-6.216;2023-01-28T08:46:27;1.25;;;1.15;;
42590;SDS011;28218;53.342;-6.216;2023-01-28T08:48:56;0.90;;;0.90;;
42590;SDS011;28218;53.342;-6.216;2023-01-28T08:51:24;1.55;;;1.10;;
42590;SDS011;28218;53.342;-6.216;2023-01-28T08:53:52;2.10;;;0.85;;
42590;SDS011;28218;53.342;-6.216;2023-01-28T08:56:22;2.83;;;0.80;;
42590;SDS011;28218;53.342;-6.216;2023-01-28T08:58:50;1.10;;;1.00;;
42590;SDS011;28218;53.342;-6.216;2023-01-28T09:01:18;0.68;;;0.68;;
42590;SDS011;28218;53.342;-6.216;2023-01-28T09:03:46;1.73;;;1.20;;
42590;SDS011;28218;53.342;-6.216;2023-01-28T09:06:14;1.50;;;0.75;;
42590;SDS011;28218;53.342;-6.216;2023-01-28T09:08:43;2.75;;;0.80;;
42590;SDS011;28218;53.342;-6.216;2023-01-28T09:11:11;0.70;;;0.70;;
42590;SDS011;28218;53.342;-6.216;2023-01-28T09:13:40;2.10;;;0.93;;
42590;SDS011;28218;53.342;-6.216;2023-01-28T09:16:09;1.00;;;0.98;;
42590;SDS011;28218;53.342;-6.216;2023-01-28T09:18:37;0.70;;;0.70;;
42590;SDS011;28218;53.342;-6.216;2023-01-28T09:21:05;1.52;;;1.00;;
42590;SDS011;28218;53.342;-6.216;2023-01-28T09:23:34;0.82;;;0.82;;
42590;SDS011;28218;53.342;-6.216;2023-01-28T09:26:03;1.38;;;1.13;;
42590;SDS011;28218;53.342;-6.216;2023-01-28T09:28:32;3.35;;;1.10;;
42590;SDS011;28218;53.342;-6.216;2023-01-28T09:31:03;1.63;;;0.88;;
42590;SDS011;28218;53.342;-6.216;2023-01-28T09:33:32;2.17;;;1.10;;
42590;SDS011;28218;53.342;-6.216;2023-01-28T09:36:02;0.80;;;0.68;;
42590;SDS011;28218;53.342;-6.216;2023-01-28T09:38:32;4.72;;;1.92;;
42590;SDS011;28218;53.342;-6.216;2023-01-28T09:41:01;2.00;;;1.15;;
42590;SDS011;28218;53.342;-6.216;2023-01-28T09:43:44;2.72;;;0.90;;
42590;SDS011;28218;53.342;-6.216;2023-01-28T09:46:24;6.03;;;1.42;;
42590;SDS011;28218;53.342;-6.216;2023-01-28T09:48:57;4.30;;;1.30;;
42590;SDS011;28218;53.342;-6.216;2023-01-28T09:51:31;1.95;;;1.30;;
42590;SDS011;28218;53.342;-6.216;2023-01-28T09:54:03;3.47;;;1.55;;
42590;SDS011;28218;53.342;-6.216;2023-01-28T09:56:40;3.92;;;1.63;;
42590;SDS011;28218;53.342;-6.216;2023-01-28T09:59:15;2.58;;;1.50;;
42590;SDS011;28218;53.342;-6.216;2023-01-28T10:01:49;3.50;;;2.13;;
42590;SDS011;28218;53.342;-6.216;2023-01-28T10:04:25;2.28;;;1.95;;
42590;SDS011;28218;53.342;-6.216;2023-01-28T10:07:14;3.60;;;2.10;;
42590;SDS011;28218;53.342;-6.216;2023-01-28T10:09:54;3.10;;;1.92;;
42590;SDS011;28218;53.342;-6.216;2023-01-28T10:12:33;3.75;;;2.10;;
42590;SDS011;28218;53.342;-6.216;2023-01-28T10:15:28;3.80;;;2.80;;
42590;SDS011;28218;53.342;-6.216;2023-01-28T10:18:13;3.15;;;2.40;;
42590;SDS011;28218;53.342;-6.216;2023-01-28T10:20:44;3.20;;;2.13;;
42590;SDS011;28218;53.342;-6.216;2023-01-28T10:23:17;3.53;;;1.83;;
42590;SDS011;28218;53.342;-6.216;2023-01-28T10:25:51;5.47;;;2.13;;
42590;SDS011;28218;53.342;-6.216;2023-01-28T10:28:24;3.33;;;2.55;;
42590;SDS011;28218;53.342;-6.216;2023-01-28T10:30:55;5.93;;;3.63;;
42590;SDS011;28218;53.342;-6.216;2023-01-28T10:33:28;4.68;;;2.78;;
42590;SDS011;28218;53.342;-6.216;2023-01-28T10:36:02;7.78;;;3.05;;
42590;SDS011;28218;53.342;-6.216;2023-01-28T10:38:31;11.00;;;4.05;;
42590;SDS011;28218;53.342;-6.216;2023-01-28T10:41:00;3.13;;;2.75;;
42590;SDS011;28218;53.342;-6.216;2023-01-28T10:43:34;5.07;;;3.00;;
42590;SDS011;28218;53.342;-6.216;2023-01-28T10:46:05;5.63;;;2.75;;
42590;SDS011;28218;53.342;-6.216;2023-01-28T10:48:41;3.63;;;2.65;;
42590;SDS011;28218;53.342;-6.216;2023-01-28T10:51:11;3.17;;;2.55;;
42590;SDS011;28218;53.342;-6.216;2023-01-28T10:53:41;3.50;;;2.85;;
42590;SDS011;28218;53.342;-6.216;2023-01-28T10:56:10;3.75;;;2.80;;
42590;SDS011;28218;53.342;-6.216;2023-01-28T10:58:46;3.38;;;2.35;;
42590;SDS011;28218;53.342;-6.216;2023-01-28T11:01:17;5.35;;;3.13;;
42590;SDS011;28218;53.342;-6.216;2023-01-28T11:03:54;3.83;;;3.35;;
42590;SDS011;28218;53.342;-6.216;2023-01-28T11:06:25;3.55;;;2.80;;
42590;SDS011;28218;53.342;-6.216;2023-01-28T11:08:54;4.05;;;3.10;;
42590;SDS011;28218;53.342;-6.216;2023-01-28T11:11:26;8.10;;;4.10;;
42590;SDS011;28218;53.342;-6.216;2023-01-28T11:13:55;7.75;;;4.15;;
42590;SDS011;28218;53.342;-6.216;2023-01-28T11:16:26;5.38;;;3.83;;
42590;SDS011;28218;53.342;-6.216;2023-01-28T11:18:57;5.82;;;4.43;;
42590;SDS011;28218;53.342;-6.216;2023-01-28T11:21:30;5.03;;;3.80;;
42590;SDS011;28218;53.342;-6.216;2023-01-28T11:24:00;6.97;;;4.10;;
42590;SDS011;28218;53.342;-6.216;2023-01-28T11:26:31;3.80;;;3.40;;
42590;SDS011;28218;53.342;-6.216;2023-01-28T11:29:02;6.35;;;3.45;;
42590;SDS011;28218;53.342;-6.216;2023-01-28T11:31:34;4.25;;;3.70;;
42590;SDS011;28218;53.342;-6.216;2023-01-28T11:34:07;4.63;;;3.17;;
42590;SDS011;28218;53.342;-6.216;2023-01-28T11:36:48;4.40;;;2.20;;
42590;SDS011;28218;53.342;-6.216;2023-01-28T11:39:19;3.42;;;2.47;;
42590;SDS011;28218;53.342;-6.216;2023-01-28T11:41:53;2.80;;;1.92;;
42590;SDS011;28218;53.342;-6.216;2023-01-28T11:44:22;1.90;;;1.70;;
42590;SDS011;28218;53.342;-6.216;2023-01-28T11:49:56;1.67;;;1.58;;
42590;SDS011;28218;53.342;-6.216;2023-01-28T11:52:37;2.80;;;1.58;;
42590;SDS011;28218;53.342;-6.216;2023-01-28T11:55:45;2.17;;;1.95;;
42590;SDS011;28218;53.342;-6.216;2023-01-28T11:58:30;3.13;;;1.85;;
42590;SDS011;28218;53.342;-6.216;2023-01-28T12:01:07;1.92;;;1.83;;
42590;SDS011;28218;53.342;-6.216;2023-01-28T12:03:46;4.63;;;2.17;;
42590;SDS011;28218;53.342;-6.216;2023-01-28T12:06:46;5.20;;;3.55;;
42590;SDS011;28218;53.342;-6.216;2023-01-28T12:09:26;6.97;;;4.63;;
42590;SDS011;28218;53.342;-6.216;2023-01-28T12:12:07;15.07;;;8.90;;
42590;SDS011;28218;53.342;-6.216;2023-01-28T12:17:41;8.32;;;4.35;;
42590;SDS011;28218;53.342;-6.216;2023-01-28T12:20:23;2.20;;;1.90;;
42590;SDS011;28218;53.342;-6.216;2023-01-28T12:23:01;1.25;;;1.10;;
42590;SDS011;28218;53.342;-6.216;2023-01-28T12:25:50;1.70;;;1.40;;
42590;SDS011;28218;53.342;-6.216;2023-01-28T12:28:32;2.03;;;1.35;;
42590;SDS011;28218;53.342;-6.216;2023-01-28T12:31:28;1.52;;;1.13;;
42590;SDS011;28218;53.342;-6.216;2023-01-28T12:34:11;2.22;;;1.95;;
42590;SDS011;28218;53.342;-6.216;2023-01-28T12:36:54;2.78;;;1.33;;
42590;SDS011;28218;53.342;-6.216;2023-01-28T12:39:35;1.95;;;1.75;;
42590;SDS011;28218;53.342;-6.216;2023-01-28T12:42:14;2.05;;;1.85;;
42590;SDS011;28218;53.342;-6.216;2023-01-28T12:44:50;4.25;;;2.38;;
42590;SDS011;28218;53.342;-6.216;2023-01-28T12:47:23;2.90;;;2.40;;
42590;SDS011;28218;53.342;-6.216;2023-01-28T12:49:56;3.30;;;2.30;;
42590;SDS011;28218;53.342;-6.216;2023-01-28T12:52:31;3.25;;;2.40;;
42590;SDS011;28218;53.342;-6.216;2023-01-28T12:55:05;5.13;;;3.20;;
42590;SDS011;28218;53.342;-6.216;2023-01-28T12:57:42;4.35;;;3.50;;
42590;SDS011;28218;53.342;-6.216;2023-01-28T13:00:17;4.95;;;3.53;;
42590;SDS011;28218;53.342;-6.216;2023-01-28T13:02:55;5.60;;;2.88;;
42590;SDS011;28218;53.342;-6.216;2023-01-28T13:05:30;5.45;;;3.60;;
42590;SDS011;28218;53.342;-6.216;2023-01-28T13:08:05;4.78;;;2.85;;
42590;SDS011;28218;53.342;-6.216;2023-01-28T13:10:42;4.10;;;3.10;;
42590;SDS011;28218;53.342;-6.216;2023-01-28T13:13:12;2.80;;;2.60;;
42590;SDS011;28218;53.342;-6.216;2023-01-28T13:15:45;4.03;;;2.65;;
42590;SDS011;28218;53.342;-6.216;2023-01-28T13:18:29;2.85;;;2.30;;
42590;SDS011;28218;53.342;-6.216;2023-01-28T13:21:00;3.05;;;2.33;;
42590;SDS011;28218;53.342;-6.216;2023-01-28T13:23:38;2.20;;;2.00;;
42590;SDS011;28218;53.342;-6.216;2023-01-28T13:26:10;1.98;;;1.88;;
42590;SDS011;28218;53.342;-6.216;2023-01-28T13:29:06;1.77;;;1.67;;
42590;SDS011;28218;53.342;-6.216;2023-01-28T13:31:44;2.05;;;1.92;;
42590;SDS011;28218;53.342;-6.216;2023-01-28T13:34:28;2.20;;;2.00;;
42590;SDS011;28218;53.342;-6.216;2023-01-28T13:37:01;2.10;;;1.80;;
42590;SDS011;28218;53.342;-6.216;2023-01-28T13:39:34;1.80;;;1.60;;
42590;SDS011;28218;53.342;-6.216;2023-01-28T13:42:09;2.60;;;2.28;;
42590;SDS011;28218;53.342;-6.216;2023-01-28T13:44:48;3.30;;;2.05;;
42590;SDS011;28218;53.342;-6.216;2023-01-28T13:47:20;2.28;;;2.08;;
42590;SDS011;28218;53.342;-6.216;2023-01-28T13:49:55;2.63;;;1.70;;
42590;SDS011;28218;53.342;-6.216;2023-01-28T13:52:27;3.63;;;2.85;;
42590;SDS011;28218;53.342;-6.216;2023-01-28T13:55:01;5.17;;;3.63;;
42590;SDS011;28218;53.342;-6.216;2023-01-28T13:57:45;3.90;;;3.38;;
42590;SDS011;28218;53.342;-6.216;2023-01-28T14:00:46;4.78;;;3.78;;
42590;SDS011;28218;53.342;-6.216;2023-01-28T14:06:41;5.68;;;5.00;;
42590;SDS011;28218;53.342;-6.216;2023-01-28T14:09:29;7.65;;;4.32;;
42590;SDS011;28218;53.342;-6.216;2023-01-28T14:12:18;6.65;;;4.40;;
42590;SDS011;28218;53.342;-6.216;2023-01-28T14:15:02;5.95;;;4.55;;
42590;SDS011;28218;53.342;-6.216;2023-01-28T14:17:51;5.20;;;4.70;;
42590;SDS011;28218;53.342;-6.216;2023-01-28T14:20:22;4.97;;;4.43;;
42590;SDS011;28218;53.342;-6.216;2023-01-28T14:22:55;6.68;;;4.95;;
42590;SDS011;28218;53.342;-6.216;2023-01-28T14:25:28;5.72;;;5.13;;
42590;SDS011;28218;53.342;-6.216;2023-01-28T14:28:03;7.57;;;5.53;;
42590;SDS011;28218;53.342;-6.216;2023-01-28T14:30:40;6.72;;;5.70;;
42590;SDS011;28218;53.342;-6.216;2023-01-28T14:33:14;6.60;;;5.28;;
42590;SDS011;28218;53.342;-6.216;2023-01-28T14:35:45;7.63;;;5.82;;
42590;SDS011;28218;53.342;-6.216;2023-01-28T14:38:16;7.35;;;5.55;;
42590;SDS011;28218;53.342;-6.216;2023-01-28T14:40:48;6.38;;;5.78;;
42590;SDS011;28218;53.342;-6.216;2023-01-28T14:43:19;8.60;;;5.93;;
42590;SDS011;28218;53.342;-6.216;2023-01-28T14:45:56;8.25;;;6.72;;
42590;SDS011;28218;53.342;-6.216;2023-01-28T14:48:36;11.15;;;7.10;;
42590;SDS011;28218;53.342;-6.216;2023-01-28T14:51:19;9.85;;;7.18;;
42590;SDS011;28218;53.342;-6.216;2023-01-28T14:54:06;6.35;;;4.93;;
42590;SDS011;28218;53.342;-6.216;2023-01-28T15:00:00;5.13;;;3.70;;
42590;SDS011;28218;53.342;-6.216;2023-01-28T15:02:30;6.13;;;4.18;;
42590;SDS011;28218;53.342;-6.216;2023-01-28T15:05:06;5.47;;;4.22;;
42590;SDS011;28218;53.342;-6.216;2023-01-28T15:07:36;6.60;;;5.15;;
42590;SDS011;28218;53.342;-6.216;2023-01-28T15:10:05;5.95;;;4.57;;
42590;SDS011;28218;53.342;-6.216;2023-01-28T15:12:42;7.70;;;5.20;;
42590;SDS011;28218;53.342;-6.216;2023-01-28T15:15:16;9.32;;;6.20;;
42590;SDS011;28218;53.342;-6.216;2023-01-28T15:17:49;9.82;;;5.95;;
42590;SDS011;28218;53.342;-6.216;2023-01-28T15:20:19;6.28;;;4.18;;
42590;SDS011;28218;53.342;-6.216;2023-01-28T15:22:49;4.00;;;3.25;;